createdAt,value
2019-01-26T00:02:23.707Z,3.79
2019-01-26T00:04:55.155Z,3.81
2019-01-26T00:07:25.759Z,3.82
2019-01-26T00:09:56.044Z,3.84
2019-01-26T00:12:28.029Z,3.87
2019-01-26T00:14:59.463Z,3.90
2019-01-26T00:17:32.086Z,3.94
2019-01-26T00:20:11.422Z,3.95
2019-01-26T00:22:40.464Z,3.97
2019-01-26T00:25:10.841Z,4.01
2019-01-26T00:27:41.143Z,4.05
2019-01-26T00:30:13.289Z,4.09
2019-01-26T00:32:45.475Z,4.13
2019-01-26T00:35:19.251Z,4.13
2019-01-26T00:37:51.582Z,4.19
2019-01-26T00:40:21.914Z,4.23
2019-01-26T00:42:53.898Z,4.27
2019-01-26T00:45:24.520Z,4.32
2019-01-26T00:47:57.664Z,4.31
2019-01-26T00:50:28.028Z,4.33
2019-01-26T00:52:58.649Z,4.33
2019-01-26T00:55:31.934Z,4.34
2019-01-26T00:58:04.283Z,4.33
2019-01-26T01:00:34.889Z,4.35
2019-01-26T01:03:07.853Z,4.35
2019-01-26T01:05:41.167Z,4.39
2019-01-26T01:08:13.246Z,4.40
2019-01-26T01:10:43.525Z,4.42
2019-01-26T01:13:18.390Z,4.42
2019-01-26T01:15:50.158Z,4.42
2019-01-26T01:18:22.723Z,4.43
2019-01-26T01:20:55.357Z,4.42
2019-01-26T01:23:27.902Z,4.42
2019-01-26T01:25:58.201Z,4.42
2019-01-26T01:28:30.196Z,4.42
2019-01-26T01:31:00.459Z,4.44
2019-01-26T01:33:30.991Z,4.45
2019-01-26T01:36:06.758Z,4.48
2019-01-26T01:38:37.333Z,4.49
2019-01-26T01:41:08.068Z,4.49
2019-01-26T01:43:40.095Z,4.50
2019-01-26T01:46:10.392Z,4.52
2019-01-26T01:48:45.631Z,4.53
2019-01-26T01:51:13.142Z,4.55
2019-01-26T01:53:43.505Z,4.58
2019-01-26T01:56:15.375Z,4.58
2019-01-26T01:58:45.693Z,4.59
2019-01-26T02:01:16.350Z,4.61
2019-01-26T02:03:57.149Z,4.63
2019-01-26T02:06:22.704Z,4.65
2019-01-26T02:08:55.214Z,4.68
2019-01-26T02:11:26.192Z,4.72
2019-01-26T02:13:56.737Z,4.70
2019-01-26T02:16:28.633Z,4.74
2019-01-26T02:19:00.493Z,4.78
2019-01-26T02:21:32.675Z,4.79
2019-01-26T02:24:03.107Z,4.83
2019-01-26T02:26:37.070Z,4.83
2019-01-26T02:29:07.431Z,4.83
2019-01-26T02:31:37.886Z,4.86
2019-01-26T02:34:09.891Z,4.89
2019-01-26T02:36:40.451Z,4.89
2019-01-26T02:39:10.819Z,4.91
2019-01-26T02:41:41.479Z,4.93
2019-01-26T02:44:13.414Z,4.92
2019-01-26T02:46:44.841Z,4.94
2019-01-26T02:49:15.219Z,4.96
2019-01-26T02:51:47.277Z,4.98
2019-01-26T02:54:17.746Z,5.02
2019-01-26T02:56:50.180Z,5.03
2019-01-26T02:59:20.611Z,5.06
2019-01-26T03:01:52.758Z,5.05
2019-01-26T03:04:23.103Z,5.05
2019-01-26T03:06:55.831Z,5.09
2019-01-26T03:09:26.383Z,5.13
2019-01-26T03:11:59.399Z,5.14
2019-01-26T03:14:29.930Z,5.15
2019-01-26T03:17:05.831Z,5.16
2019-01-26T03:19:33.983Z,5.15
2019-01-26T03:22:04.422Z,5.18
2019-01-26T03:24:35.099Z,5.19
2019-01-26T03:27:05.780Z,5.20
2019-01-26T03:29:36.040Z,5.21
2019-01-26T03:32:06.641Z,5.23
2019-01-26T03:34:37.324Z,5.26
2019-01-26T03:37:07.601Z,5.26
2019-01-26T03:39:38.232Z,5.31
2019-01-26T03:42:10.684Z,5.34
2019-01-26T03:44:41.169Z,5.32
2019-01-26T03:47:13.839Z,5.32
2019-01-26T03:49:46.806Z,5.37
2019-01-26T03:52:17.597Z,5.39
2019-01-26T03:54:47.948Z,5.41
2019-01-26T03:57:18.262Z,5.42
2019-01-26T03:59:49.105Z,5.43
2019-01-26T04:02:19.437Z,5.46
2019-01-26T04:04:51.387Z,5.45
2019-01-26T04:07:22.632Z,5.48
2019-01-26T04:09:54.270Z,5.50
2019-01-26T04:12:26.625Z,5.52
2019-01-26T04:14:56.982Z,5.53
2019-01-26T04:17:27.272Z,5.54
2019-01-26T04:20:01.403Z,5.53
2019-01-26T04:22:32.004Z,5.53
2019-01-26T04:25:05.432Z,5.56
2019-01-26T04:27:38.004Z,5.56
2019-01-26T04:30:14.832Z,5.58
2019-01-26T04:32:45.423Z,5.58
2019-01-26T04:35:16.529Z,5.59
2019-01-26T04:37:46.948Z,5.59
2019-01-26T04:40:18.762Z,5.60
2019-01-26T04:42:49.063Z,5.60
2019-01-26T04:45:21.557Z,5.64
2019-01-26T04:47:52.327Z,5.66
2019-01-26T04:50:22.901Z,5.66
2019-01-26T04:52:54.866Z,5.67
2019-01-26T04:55:27.002Z,5.68
2019-01-26T04:57:57.588Z,5.69
2019-01-26T05:00:29.048Z,5.70
2019-01-26T05:02:59.708Z,5.71
2019-01-26T05:05:30.002Z,5.73
2019-01-26T05:08:00.554Z,5.73
2019-01-26T05:10:30.839Z,5.73
2019-01-26T05:13:01.487Z,5.71
2019-01-26T05:15:38.527Z,5.72
2019-01-26T05:18:07.536Z,5.72
2019-01-26T05:20:37.807Z,5.71
2019-01-26T05:23:08.816Z,5.72
2019-01-26T05:25:39.170Z,5.73
2019-01-26T05:28:11.284Z,5.75
2019-01-26T05:30:41.909Z,5.75
2019-01-26T05:33:12.973Z,5.75
2019-01-26T05:35:43.587Z,5.76
2019-01-26T05:38:16.418Z,5.75
2019-01-26T05:40:46.762Z,5.77
2019-01-26T05:43:21.162Z,5.79
2019-01-26T05:45:52.816Z,5.79
2019-01-26T05:48:23.169Z,5.81
2019-01-26T05:50:53.673Z,5.82
2019-01-26T05:53:24.337Z,5.85
2019-01-26T05:55:54.949Z,5.86
2019-01-26T05:58:25.442Z,5.87
2019-01-26T06:00:56.175Z,5.89
2019-01-26T06:03:26.662Z,5.91
2019-01-26T06:05:58.441Z,5.92
2019-01-26T06:08:28.819Z,5.91
2019-01-26T06:11:01.969Z,5.92
2019-01-26T06:13:37.699Z,5.93
2019-01-26T06:16:08.157Z,5.96
2019-01-26T06:18:38.625Z,5.99
2019-01-26T06:21:10.839Z,6.01
2019-01-26T06:23:41.166Z,6.01
2019-01-26T06:26:12.155Z,6.01
2019-01-26T06:28:42.503Z,6.02
2019-01-26T06:31:13.194Z,6.02
2019-01-26T06:33:43.842Z,6.02
2019-01-26T06:36:14.771Z,6.03
2019-01-26T06:38:45.088Z,6.03
2019-01-26T06:41:17.630Z,6.05
2019-01-26T06:43:49.526Z,6.07
2019-01-26T06:46:21.296Z,6.05
2019-01-26T06:48:55.148Z,6.05
2019-01-26T06:51:25.771Z,6.11
2019-01-26T06:53:56.079Z,6.13
2019-01-26T06:56:27.388Z,6.13
2019-01-26T06:58:57.715Z,6.14
2019-01-26T07:01:28.392Z,6.15
2019-01-26T07:03:58.713Z,6.18
2019-01-26T07:06:34.320Z,6.18
2019-01-26T07:09:09.205Z,6.19
2019-01-26T07:11:40.891Z,6.21
2019-01-26T07:14:12.649Z,6.23
2019-01-26T07:16:45.900Z,6.21
2019-01-26T07:19:16.362Z,6.21
2019-01-26T07:21:48.619Z,6.21
2019-01-26T07:24:28.692Z,6.21
2019-01-26T07:27:01.032Z,6.24
2019-01-26T07:29:31.574Z,6.23
2019-01-26T07:32:04.179Z,6.23
2019-01-26T07:34:48.207Z,6.23
2019-01-26T07:37:15.417Z,6.23
2019-01-26T07:39:45.932Z,6.24
2019-01-26T07:42:16.296Z,6.25
2019-01-26T07:44:46.658Z,6.24
2019-01-26T07:47:25.598Z,6.24
2019-01-26T07:50:03.449Z,6.24
2019-01-26T07:52:35.812Z,6.24
2019-01-26T07:55:07.698Z,6.22
2019-01-26T07:57:42.680Z,6.21
2019-01-26T08:00:19.850Z,6.16
2019-01-26T08:02:53.087Z,6.16
2019-01-26T08:05:52.900Z,6.19
2019-01-26T08:08:26.357Z,6.17
2019-01-26T08:10:59.430Z,6.15
2019-01-26T08:13:32.268Z,6.16
2019-01-26T08:16:02.966Z,6.14
2019-01-26T08:18:39.713Z,6.14
2019-01-26T08:21:10.135Z,6.13
2019-01-26T08:23:42.760Z,6.14
2019-01-26T08:26:13.196Z,6.15
2019-01-26T08:28:49.865Z,6.17
2019-01-26T08:31:19.748Z,6.15
2019-01-26T08:33:52.078Z,6.16
2019-01-26T08:36:22.859Z,6.20
2019-01-26T08:38:55.092Z,6.20
2019-01-26T08:41:25.621Z,6.21
2019-01-26T08:43:56.388Z,6.23
2019-01-26T08:46:27.265Z,6.22
2019-01-26T08:49:00.953Z,6.26
2019-01-26T08:51:31.268Z,6.27
2019-01-26T08:54:03.193Z,6.27
2019-01-26T08:56:37.315Z,6.25
2019-01-26T08:59:09.217Z,6.25
2019-01-26T09:01:39.707Z,6.23
2019-01-26T09:04:22.112Z,6.22
2019-01-26T09:07:00.269Z,6.21
2019-01-26T09:09:30.754Z,6.21
2019-01-26T09:12:01.107Z,6.21
2019-01-26T09:14:32.038Z,6.21
2019-01-26T09:17:03.999Z,6.17
2019-01-26T09:19:34.605Z,6.16
2019-01-26T09:22:11.501Z,6.16
2019-01-26T09:24:41.879Z,6.15
2019-01-26T09:27:16.113Z,6.15
2019-01-26T09:29:49.558Z,6.14
2019-01-26T09:32:22.528Z,6.14
2019-01-26T09:34:58.103Z,6.12
2019-01-26T09:37:34.016Z,6.13
2019-01-26T09:40:08.649Z,6.16
2019-01-26T09:42:41.280Z,6.20
2019-01-26T09:45:15.933Z,6.22
2019-01-26T09:47:49.318Z,6.25
2019-01-26T09:50:21.009Z,6.26
2019-01-26T09:52:52.172Z,6.29
2019-01-26T09:55:22.558Z,6.33
2019-01-26T09:57:53.032Z,6.34
2019-01-26T10:00:25.204Z,6.36
2019-01-26T10:02:55.693Z,6.40
2019-01-26T10:05:27.638Z,6.41
2019-01-26T10:08:00.695Z,6.45
2019-01-26T10:10:31.558Z,6.50
2019-01-26T10:13:01.970Z,6.49
2019-01-26T10:15:37.131Z,6.49
2019-01-26T10:18:07.927Z,6.51
2019-01-26T10:20:42.472Z,6.52
2019-01-26T10:23:12.831Z,6.52
2019-01-26T10:25:48.608Z,6.53
2019-01-26T10:28:15.527Z,6.55
2019-01-26T10:30:49.630Z,6.61
2019-01-26T10:33:21.195Z,6.63
2019-01-26T10:36:17.145Z,6.68
2019-01-26T10:39:01.046Z,6.73
2019-01-26T10:41:49.350Z,6.82
2019-01-26T10:44:32.332Z,6.84
2019-01-26T10:47:03.646Z,6.83
2019-01-26T10:49:40.265Z,6.77
2019-01-26T10:52:11.316Z,6.75
2019-01-26T10:54:42.883Z,6.73
2019-01-26T10:57:13.462Z,6.75
2019-01-26T11:02:25.239Z,6.76
2019-01-26T11:04:56.624Z,6.78
2019-01-26T11:07:26.977Z,6.79
2019-01-26T11:10:02.812Z,6.84
2019-01-26T11:12:34.760Z,6.86
2019-01-26T11:15:09.675Z,6.89
2019-01-26T11:17:46.162Z,6.91
2019-01-26T11:20:16.740Z,6.96
2019-01-26T11:22:47.411Z,6.99
2019-01-26T11:25:17.939Z,7.03
2019-01-26T11:27:48.839Z,7.06
2019-01-26T11:30:20.462Z,7.14
2019-01-26T11:32:51.403Z,7.23
2019-01-26T11:35:22.312Z,7.23
2019-01-26T11:37:52.766Z,7.35
2019-01-26T11:40:24.725Z,7.48
2019-01-26T11:42:55.704Z,7.62
2019-01-26T11:45:44.997Z,7.66
2019-01-26T11:48:21.761Z,7.73
2019-01-26T11:50:57.841Z,7.74
2019-01-26T11:53:29.806Z,7.69
2019-01-26T11:56:10.093Z,7.65
2019-01-26T11:58:40.783Z,7.69
2019-01-26T12:01:25.767Z,7.77
2019-01-26T12:04:15.174Z,7.73
2019-01-26T12:06:51.038Z,7.73
2019-01-26T12:09:21.623Z,7.79
2019-01-26T12:11:53.015Z,7.82
2019-01-26T12:14:26.589Z,7.83
2019-01-26T12:16:56.265Z,7.76
2019-01-26T12:19:26.920Z,7.85
2019-01-26T12:21:57.270Z,8.16
2019-01-26T12:24:30.599Z,8.53
2019-01-26T12:27:01.129Z,8.86
2019-01-26T12:29:31.471Z,8.93
2019-01-26T12:32:03.518Z,8.91
2019-01-26T12:34:34.089Z,9.01
2019-01-26T12:37:07.207Z,8.98
2019-01-26T12:39:42.989Z,9.00
2019-01-26T12:42:15.309Z,9.15
2019-01-26T12:44:45.847Z,9.16
2019-01-26T12:47:17.780Z,9.13
2019-01-26T12:49:59.459Z,9.05
2019-01-26T12:52:29.986Z,9.01
2019-01-26T12:55:00.782Z,8.88
2019-01-26T12:57:36.314Z,8.83
2019-01-26T13:00:19.754Z,8.75
2019-01-26T13:02:49.465Z,8.65
2019-01-26T13:05:21.710Z,8.62
2019-01-26T13:07:52.476Z,8.63
2019-01-26T13:10:37.943Z,8.59
2019-01-26T13:13:00.826Z,8.51
2019-01-26T13:15:31.153Z,8.43
2019-01-26T13:18:03.961Z,8.34
2019-01-26T13:20:34.594Z,8.31
2019-01-26T13:23:04.929Z,8.40
2019-01-26T13:25:36.809Z,8.61
2019-01-26T13:28:20.990Z,8.75
2019-01-26T13:30:41.859Z,8.78
2019-01-26T13:33:12.275Z,8.74
2019-01-26T13:35:45.302Z,8.65
2019-01-26T13:38:17.054Z,8.50
2019-01-26T13:40:47.779Z,8.29
2019-01-26T13:43:19.547Z,8.12
2019-01-26T13:45:51.542Z,8.03
2019-01-26T13:48:21.876Z,8.09
2019-01-26T13:50:53.569Z,8.15
2019-01-26T13:53:26.475Z,8.24
2019-01-26T13:55:57.132Z,8.34
2019-01-26T13:58:27.857Z,8.41
2019-01-26T14:01:01.103Z,8.46
2019-01-26T14:03:31.661Z,8.55
2019-01-26T14:06:02.479Z,8.56
2019-01-26T14:08:34.192Z,8.54
2019-01-26T14:11:05.290Z,8.51
2019-01-26T14:13:35.608Z,8.50
2019-01-26T14:16:08.974Z,8.45
2019-01-26T14:18:39.725Z,8.43
2019-01-26T14:21:10.395Z,8.38
2019-01-26T14:23:40.933Z,8.34
2019-01-26T14:26:11.401Z,8.31
2019-01-26T14:28:41.788Z,8.25
2019-01-26T14:31:19.870Z,8.15
2019-01-26T14:33:50.204Z,8.06
2019-01-26T14:36:20.854Z,7.95
2019-01-26T14:38:53.236Z,7.86
2019-01-26T14:41:23.927Z,7.78
2019-01-26T14:43:54.664Z,7.74
2019-01-26T14:46:26.473Z,7.73
2019-01-26T14:48:57.107Z,7.73
2019-01-26T14:51:27.769Z,7.73
2019-01-26T14:54:02.172Z,7.74
2019-01-26T14:56:32.741Z,7.73
2019-01-26T14:59:03.972Z,7.70
2019-01-26T15:01:36.758Z,7.67
2019-01-26T15:04:09.427Z,7.58
2019-01-26T15:06:39.770Z,7.47
2019-01-26T15:09:10.734Z,7.32
2019-01-26T15:11:42.266Z,7.23
2019-01-26T15:14:12.983Z,7.18
2019-01-26T15:16:51.228Z,7.12
2019-01-26T15:19:21.890Z,7.09
2019-01-26T15:21:52.335Z,7.09
2019-01-26T15:24:22.772Z,7.03
2019-01-26T15:26:53.204Z,7.03
2019-01-26T15:29:24.894Z,7.02
2019-01-26T15:31:58.775Z,7.02
2019-01-26T15:34:31.014Z,7.05
2019-01-26T15:37:08.119Z,7.04
2019-01-26T15:39:40.017Z,7.06
2019-01-26T15:42:10.434Z,7.08
2019-01-26T15:44:41.283Z,7.10
2019-01-26T15:47:11.939Z,7.11
2019-01-26T15:49:51.399Z,7.12
2019-01-26T15:52:23.399Z,7.13
2019-01-26T15:54:54.163Z,7.14
2019-01-26T15:57:25.951Z,7.13
2019-01-26T15:59:56.339Z,7.13
2019-01-26T16:02:28.284Z,7.14
2019-01-26T16:05:01.981Z,7.13
2019-01-26T16:07:44.132Z,7.12
2019-01-26T16:10:10.641Z,7.06
2019-01-26T16:12:41.274Z,7.01
2019-01-26T16:15:16.060Z,6.93
2019-01-26T16:17:46.660Z,6.88
2019-01-26T16:20:20.330Z,6.85
2019-01-26T16:22:54.118Z,6.83
2019-01-26T16:25:34.653Z,6.80
2019-01-26T16:28:11.488Z,6.78
2019-01-26T16:30:43.256Z,6.73
2019-01-26T16:33:15.091Z,6.70
2019-01-26T16:35:45.620Z,6.66
2019-01-26T16:38:16.142Z,6.63
2019-01-26T16:40:53.023Z,6.57
2019-01-26T16:43:35.107Z,6.56
2019-01-26T16:46:14.396Z,6.54
2019-01-26T16:48:59.132Z,6.53
2019-01-26T16:51:58.998Z,6.52
2019-01-26T16:54:37.367Z,6.50
2019-01-26T16:57:08.397Z,6.47
2019-01-26T16:59:52.969Z,6.44
2019-01-26T17:02:25.015Z,6.41
2019-01-26T17:04:55.655Z,6.38
2019-01-26T17:07:26.444Z,6.33
2019-01-26T17:10:01.778Z,6.30
2019-01-26T17:12:32.275Z,6.25
2019-01-26T17:15:03.342Z,6.24
2019-01-26T17:17:34.212Z,6.20
2019-01-26T17:20:10.318Z,6.19
2019-01-26T17:22:41.870Z,6.19
2019-01-26T17:25:14.175Z,6.18
2019-01-26T17:27:53.793Z,6.18
2019-01-26T17:30:29.556Z,6.17
2019-01-26T17:33:09.229Z,6.17
2019-01-26T17:35:42.410Z,6.15
2019-01-26T17:38:13.211Z,6.15
2019-01-26T17:40:43.713Z,6.13
2019-01-26T17:43:14.463Z,6.13
2019-01-26T17:45:54.658Z,6.12
2019-01-26T17:48:25.228Z,6.12
2019-01-26T17:50:55.575Z,6.11
2019-01-26T17:53:37.670Z,6.10
2019-01-26T17:56:11.608Z,6.09
2019-01-26T17:58:44.670Z,6.09
2019-01-26T18:01:15.994Z,6.09
2019-01-26T18:03:49.754Z,6.09
2019-01-26T18:06:20.602Z,6.08
2019-01-26T18:08:51.372Z,6.07
2019-01-26T18:11:21.730Z,6.07
2019-01-26T18:13:53.192Z,6.06
2019-01-26T18:16:25.135Z,6.07
2019-01-26T18:18:56.769Z,6.08
2019-01-26T18:21:35.157Z,6.10
2019-01-26T18:24:08.817Z,6.12
2019-01-26T18:26:40.118Z,6.13
2019-01-26T18:29:10.782Z,6.11
2019-01-26T18:31:54.279Z,6.11
2019-01-26T18:34:25.142Z,6.08
2019-01-26T18:36:55.598Z,6.08
2019-01-26T18:39:27.006Z,6.07
2019-01-26T18:41:57.463Z,6.05
2019-01-26T18:44:27.977Z,6.04
2019-01-26T18:47:00.473Z,6.01
2019-01-26T18:49:31.333Z,5.96
2019-01-26T18:52:04.370Z,5.96
2019-01-26T18:54:34.837Z,5.97
2019-01-26T18:57:05.658Z,5.97
2019-01-26T18:59:36.162Z,5.99
2019-01-26T19:02:06.891Z,5.98
2019-01-26T19:04:41.768Z,6.00
2019-01-26T19:07:12.822Z,6.00
2019-01-26T19:09:43.175Z,6.01
2019-01-26T19:12:13.528Z,6.03
2019-01-26T19:14:45.786Z,6.03
2019-01-26T19:17:16.078Z,6.03
2019-01-26T19:19:46.767Z,6.03
2019-01-26T19:22:17.255Z,6.05
2019-01-26T19:24:47.948Z,6.04
2019-01-26T19:27:19.580Z,6.06
2019-01-26T19:29:49.923Z,6.07
2019-01-26T19:32:21.960Z,6.08
2019-01-26T19:34:54.908Z,6.10
2019-01-26T19:37:25.281Z,6.12
2019-01-26T19:39:56.005Z,6.13
2019-01-26T19:42:28.768Z,6.15
2019-01-26T19:44:59.372Z,6.19
2019-01-26T19:47:29.986Z,6.23
2019-01-26T19:50:01.075Z,6.22
2019-01-26T19:52:31.470Z,6.24
2019-01-26T19:55:04.674Z,6.24
2019-01-26T19:57:35.089Z,6.26
2019-01-26T20:00:07.955Z,6.28
2019-01-26T20:02:38.320Z,6.29
2019-01-26T20:05:11.759Z,6.30
2019-01-26T20:07:42.743Z,6.30
2019-01-26T20:10:13.897Z,6.32
2019-01-26T20:12:45.489Z,6.32
2019-01-26T20:15:18.687Z,6.34
2019-01-26T20:17:49.140Z,6.34
2019-01-26T20:20:23.978Z,6.38
2019-01-26T20:22:54.325Z,6.38
2019-01-26T20:25:25.140Z,6.36
2019-01-26T20:27:59.538Z,6.38
2019-01-26T20:30:31.656Z,6.40
2019-01-26T20:33:01.991Z,6.42
2019-01-26T20:35:40.091Z,6.40
2019-01-26T20:38:13.010Z,6.40
2019-01-26T20:40:44.113Z,6.41
2019-01-26T20:43:15.571Z,6.40
2019-01-26T20:45:47.191Z,6.36
2019-01-26T20:48:17.841Z,6.32
2019-01-26T20:50:49.105Z,6.33
2019-01-26T20:53:19.633Z,6.29
2019-01-26T20:55:51.518Z,6.29
2019-01-26T20:58:21.870Z,6.30
2019-01-26T21:00:53.894Z,6.28
2019-01-26T21:03:24.600Z,6.31
2019-01-26T21:05:54.878Z,6.31
2019-01-26T21:08:28.949Z,6.35
2019-01-26T21:10:59.223Z,6.37
2019-01-26T21:13:29.722Z,6.38
2019-01-26T21:16:00.157Z,6.35
2019-01-26T21:18:30.789Z,6.27
2019-01-26T21:21:01.362Z,6.20
2019-01-26T21:23:33.346Z,6.24
2019-01-26T21:26:07.993Z,6.27
2019-01-26T21:28:39.028Z,6.17
2019-01-26T21:31:09.686Z,6.08
2019-01-26T21:33:45.762Z,5.91
2019-01-26T21:36:16.550Z,5.91
2019-01-26T21:38:48.555Z,5.86
2019-01-26T21:41:18.871Z,5.94
2019-01-26T21:43:49.799Z,6.09
2019-01-26T21:46:21.712Z,6.17
2019-01-26T21:48:55.043Z,6.18
2019-01-26T21:51:25.500Z,6.14
2019-01-26T21:53:56.131Z,6.20
2019-01-26T21:56:26.897Z,6.18
2019-01-26T21:58:57.622Z,6.28
2019-01-26T22:01:28.073Z,6.28
2019-01-26T22:03:58.503Z,6.25
2019-01-26T22:06:40.161Z,6.25
2019-01-26T22:09:11.175Z,6.31
2019-01-26T22:11:43.269Z,6.34
2019-01-26T22:14:13.993Z,6.34
2019-01-26T22:16:44.382Z,6.34
2019-01-26T22:19:21.617Z,6.32
2019-01-26T22:21:48.009Z,6.30
2019-01-26T22:24:18.654Z,6.35
2019-01-26T22:26:49.010Z,6.37
2019-01-26T22:29:31.087Z,6.42
2019-01-26T22:31:57.187Z,6.45
2019-01-26T22:34:29.999Z,6.53
2019-01-26T22:37:00.254Z,6.52
2019-01-26T22:39:30.869Z,6.49
2019-01-26T22:42:02.998Z,6.45
2019-01-26T22:44:33.486Z,6.50
2019-01-26T22:47:03.944Z,6.55
2019-01-26T22:49:37.305Z,6.57
2019-01-26T22:52:07.586Z,6.58
2019-01-26T22:54:39.083Z,6.53
2019-01-26T22:57:14.837Z,6.46
2019-01-26T22:59:45.104Z,6.38
2019-01-26T23:02:15.793Z,6.30
2019-01-26T23:05:25.904Z,6.21
2019-01-26T23:08:00.929Z,6.15
2019-01-26T23:11:01.841Z,6.09
2019-01-26T23:14:02.239Z,6.07
2019-01-26T23:17:27.601Z,6.06
2019-01-26T23:20:33.549Z,6.03
2019-01-26T23:23:45.187Z,6.02
2019-01-26T23:26:59.907Z,6.06
2019-01-26T23:30:26.209Z,6.04
2019-01-26T23:33:07.524Z,6.04
2019-01-26T23:35:38.472Z,5.95
2019-01-26T23:38:16.427Z,5.89
2019-01-26T23:40:47.876Z,5.90
2019-01-26T23:43:18.596Z,5.92
2019-01-26T23:45:49.341Z,5.93
2019-01-26T23:48:19.999Z,5.95
2019-01-26T23:50:50.310Z,5.98
2019-01-26T23:53:25.457Z,5.99
2019-01-26T23:55:55.466Z,5.99
2019-01-26T23:58:26.499Z,5.99
